Time;durP1;ratioP1;P1;durP2;ratioP2;P2;SDS_P1;SDS_P2;PMS_P1;PMS_P2;Temp;Humidity;BMP_temperature;BMP_pressure;BME280_temperature;BME280_humidity;BME280_pressure;Samples;Min_cycle;Max_cycle;Signal;HPM_P1;HPM_P2
2022/01/21 00:00:47;;;;;;;4.93;2.50;;;;;;;-2.31;99.16;100074.06;6303949;28;20078;-73
2022/01/21 00:03:49;;;;;;;5.95;2.38;;;;;;;-2.46;99.31;100080.16;6322626;28;20075;-68
2022/01/21 00:06:49;;;;;;;7.93;3.40;;;;;;;-2.46;98.16;100068.22;6322703;28;20044;-73
2022/01/21 00:09:50;;;;;;;4.78;2.85;;;;;;;-2.32;96.18;100073.22;6271387;28;20094;-73
2022/01/21 00:12:53;;;;;;;14.57;2.92;;;;;;;-2.39;95.54;100075.81;6304201;28;20036;-73
2022/01/21 00:15:54;;;;;;;4.63;2.40;;;;;;;-2.33;94.79;100074.06;6304410;28;20047;-73
2022/01/21 00:19:20;;;;;;;7.38;2.88;;;;;;;-2.39;94.79;100075.81;6321575;28;20044;-73
2022/01/21 00:32:16;;;;;;;8.95;3.15;;;;;;;-2.30;92.52;100091.94;6292757;28;20074;-68
2022/01/21 00:35:18;;;;;;;5.63;2.67;;;;;;;-2.32;92.59;100095.38;6322143;28;20482;-73
2022/01/21 00:38:21;;;;;;;11.27;2.58;;;;;;;-2.46;92.10;100088.66;6321925;28;20400;-72
2022/01/21 00:41:27;;;;;;;9.60;2.92;;;;;;;-2.33;90.63;100091.13;6304227;28;20048;-73
2022/01/21 00:44:27;;;;;;;6.47;2.60;;;;;;;-2.43;90.47;100090.31;6303725;28;20373;-73
2022/01/21 00:47:29;;;;;;;6.20;2.55;;;;;;;-2.39;89.48;100089.44;6287359;28;20120;-73
2022/01/21 00:50:30;;;;;;;6.15;2.13;;;;;;;-2.40;89.72;100089.47;6321703;28;20036;-73
2022/01/21 00:53:32;;;;;;;6.38;2.95;;;;;;;-2.49;88.63;100091.25;6303701;28;20044;-73
2022/01/21 00:56:33;;;;;;;8.13;2.88;;;;;;;-2.44;87.73;100086.94;6321721;28;20048;-73
2022/01/21 00:59:34;;;;;;;7.43;2.70;;;;;;;-2.37;87.07;100082.63;6321560;28;20055;-73
2022/01/21 01:02:36;;;;;;;5.80;2.05;;;;;;;-2.53;87.26;100079.34;6303515;28;20040;-73
2022/01/21 01:05:36;;;;;;;3.42;1.88;;;;;;;-2.56;88.24;100083.63;6303582;28;20185;-73
2022/01/21 01:08:37;;;;;;;5.50;2.25;;;;;;;-2.68;86.94;100089.66;6321732;28;20048;-73
2022/01/21 01:21:32;;;;;;;13.15;3.38;;;;;;;-2.59;85.31;100079.38;6305454;28;20044;-73
2022/01/21 01:27:46;;;;;;;9.65;2.70;;;;;;;-2.63;84.33;100072.59;6321320;28;20044;-74
2022/01/21 01:30:47;;;;;;;5.57;2.00;;;;;;;-2.57;84.04;100077.66;6321450;28;20412;-73
2022/01/21 01:33:48;;;;;;;7.38;2.90;;;;;;;-2.64;85.16;100078.56;6305126;28;20104;-73
2022/01/21 01:36:49;;;;;;;4.78;2.13;;;;;;;-2.63;85.79;100072.59;6308291;28;20119;-73
2022/01/21 01:40:00;;;;;;;8.18;2.55;;;;;;;-2.67;86.11;100068.38;6325956;28;20043;-69
2022/01/21 01:49:30;;;;;;;13.90;3.60;;;;;;;-3.01;88.16;100065.16;6325944;28;20066;-68
2022/01/21 01:52:32;;;;;;;6.30;2.60;;;;;;;-2.97;87.46;100062.59;6309179;28;20468;-68
2022/01/21 01:55:34;;;;;;;6.73;1.90;;;;;;;-3.04;87.38;100055.81;6325747;28;20044;-68
2022/01/21 01:58:37;;;;;;;5.28;1.52;;;;;;;-3.07;86.85;100056.69;6325637;28;20470;-69
2022/01/21 02:01:38;;;;;;;7.68;2.35;;;;;;;-3.08;86.83;100057.53;6307354;28;20075;-73
2022/01/21 02:04:41;;;;;;;3.75;1.40;;;;;;;-3.20;86.86;100054.22;6307414;28;20036;-73
2022/01/21 02:07:41;;;;;;;5.97;1.50;;;;;;;-3.16;86.50;100059.28;6307598;28;20044;-73
2022/01/21 02:10:42;;;;;;;8.15;1.60;;;;;;;-3.25;86.47;100059.34;6325485;28;20193;-73
2022/01/21 02:13:47;;;;;;;11.07;2.30;;;;;;;-3.12;86.18;100063.50;6307189;28;20097;-73
2022/01/21 02:23:17;;;;;;;11.55;1.80;;;;;;;-3.09;86.28;100075.41;6325044;28;20051;-68
2022/01/21 02:26:19;;;;;;;12.98;1.80;;;;;;;-3.12;87.18;100075.44;6307075;28;20151;-68
2022/01/21 02:29:31;;;;;;;6.47;1.67;;;;;;;-3.04;86.76;100081.34;6325093;28;20055;-68
2022/01/21 02:32:31;;;;;;;8.88;2.10;;;;;;;-3.07;86.57;100086.47;6324832;28;20064;-73
2022/01/21 02:35:32;;;;;;;4.75;1.42;;;;;;;-3.29;89.09;100080.63;6324968;28;20044;-73
2022/01/21 02:38:33;;;;;;;5.15;1.50;;;;;;;-3.26;88.63;100084.00;6289995;28;20048;-68
2022/01/21 02:41:34;;;;;;;4.78;2.38;;;;;;;-3.17;88.39;100085.69;6306495;28;20131;-68
2022/01/21 02:44:36;;;;;;;6.18;2.45;;;;;;;-3.23;88.84;100083.16;6323355;28;20032;-73
2022/01/21 02:47:37;;;;;;;8.57;2.00;;;;;;;-3.32;89.65;100088.28;6323901;28;20483;-73
2022/01/21 02:50:38;;;;;;;9.25;1.90;;;;;;;-3.28;89.96;100082.31;6306581;28;20280;-73
2022/01/21 02:56:41;;;;;;;9.20;2.08;;;;;;;-3.27;90.21;100089.13;6324493;28;20108;-73
2022/01/21 02:59:41;;;;;;;9.73;2.17;;;;;;;-3.22;90.24;100091.66;6306140;28;20052;-69
2022/01/21 03:02:42;;;;;;;8.82;2.15;;;;;;;-3.21;90.91;100086.53;6306350;28;20074;-68
2022/01/21 03:05:45;;;;;;;3.85;1.65;;;;;;;-3.19;90.45;100082.28;6306264;28;20039;-69
2022/01/21 03:08:48;;;;;;;6.18;2.13;;;;;;;-3.20;90.62;100090.78;6305995;28;20046;-68
2022/01/21 03:11:48;;;;;;;6.15;2.10;;;;;;;-3.23;90.42;100080.59;6323921;28;20051;-68
2022/01/21 03:14:49;;;;;;;16.02;2.25;;;;;;;-3.31;91.62;100084.88;6289256;28;20063;-68
2022/01/21 03:17:50;;;;;;;12.18;2.67;;;;;;;-3.39;92.50;100076.41;6289449;28;20472;-68
2022/01/21 03:20:51;;;;;;;9.82;2.88;;;;;;;-3.43;93.53;100069.63;6305666;28;20476;-68
2022/01/21 03:23:54;;;;;;;11.30;2.70;;;;;;;-3.47;93.68;100069.63;6323551;28;20048;-68
2022/01/21 03:26:55;;;;;;;10.23;3.17;;;;;;;-3.60;95.86;100074.75;6305566;28;20504;-73
2022/01/21 03:29:57;;;;;;;8.35;2.65;;;;;;;-3.55;96.11;100066.25;6323427;28;20131;-73
2022/01/21 03:32:58;;;;;;;9.80;3.13;;;;;;;-3.47;95.52;100074.72;6305243;28;20434;-73
2022/01/21 03:35:59;;;;;;;11.82;2.20;;;;;;;-3.47;96.12;100074.72;6305159;28;20047;-73
2022/01/21 03:38:59;;;;;;;8.73;2.60;;;;;;;-3.45;95.85;100072.16;6288485;28;20040;-68
2022/01/21 03:42:00;;;;;;;11.07;2.47;;;;;;;-3.59;97.46;100084.97;6288337;28;20044;-69
2022/01/21 03:45:02;;;;;;;8.45;3.08;;;;;;;-3.62;97.95;100076.47;6323137;28;20457;-68
2022/01/21 03:48:05;;;;;;;8.60;3.35;;;;;;;-3.68;99.82;100072.25;6305251;28;20052;-68
2022/01/21 03:51:06;;;;;;;5.70;2.83;;;;;;;-3.60;99.63;100072.19;6323040;28;20428;-68
2022/01/21 03:54:06;;;;;;;7.63;3.15;;;;;;;-3.57;99.01;100072.22;6322558;28;20054;-73
2022/01/21 03:57:07;;;;;;;10.77;3.63;;;;;;;-3.45;98.07;100074.72;6304375;28;20040;-73
2022/01/21 04:00:12;;;;;;;10.95;3.50;;;;;;;-3.36;98.16;100081.50;6304513;28;20047;-73
2022/01/21 04:03:13;;;;;;;7.43;3.35;;;;;;;-3.29;97.13;100084.00;6304592;28;20047;-73
2022/01/21 04:06:14;;;;;;;9.35;3.25;;;;;;;-3.30;97.27;100084.84;6304239;28;20133;-73
2022/01/21 04:09:15;;;;;;;11.85;3.10;;;;;;;-3.29;97.02;100085.72;6287471;28;20468;-73
2022/01/21 04:12:16;;;;;;;8.73;3.10;;;;;;;-3.30;97.38;100094.22;6303826;28;20051;-73
2022/01/21 04:15:17;;;;;;;8.15;2.88;;;;;;;-3.46;96.76;100096.84;6321873;28;20044;-74
2022/01/21 04:18:19;;;;;;;11.30;3.10;;;;;;;-3.63;98.44;100097.72;6322282;28;20074;-73
2022/01/21 04:21:21;;;;;;;6.53;3.17;;;;;;;-3.73;98.71;100102.84;6304029;28;20044;-69
2022/01/21 04:24:22;;;;;;;22.75;7.60;;;;;;;-3.90;98.89;100115.63;6303529;28;20123;-68
2022/01/21 04:27:23;;;;;;;24.13;9.55;;;;;;;-3.92;99.93;100117.31;6321518;28;20073;-68
2022/01/21 04:30:24;;;;;;;18.55;5.50;;;;;;;-3.97;99.41;100101.19;6321474;28;20059;-69
2022/01/21 04:33:25;;;;;;;16.05;6.15;;;;;;;-3.94;100.00;100107.97;6303410;28;20048;-73
2022/01/21 04:36:26;;;;;;;6.65;2.72;;;;;;;-3.89;99.73;100121.56;6321386;28;20127;-73
2022/01/21 04:39:33;;;;;;;11.15;4.53;;;;;;;-3.82;98.94;100135.16;6303297;28;20040;-73
2022/01/21 04:49:12;;;;;;;7.57;3.28;;;;;;;-3.96;100.00;100137.72;6306380;28;20052;-73
2022/01/21 04:52:14;;;;;;;12.70;5.07;;;;;;;-3.92;100.00;100131.78;6303801;28;20043;-73
2022/01/21 04:55:15;;;;;;;9.35;5.03;;;;;;;-3.99;100.00;100133.47;6304112;28;20036;-73
2022/01/21 04:58:16;;;;;;;13.50;3.95;;;;;;;-3.94;100.00;100139.41;6287238;28;20068;-73
2022/01/21 05:01:17;;;;;;;14.13;4.60;;;;;;;-3.86;100.00;100147.06;6321845;28;20036;-73
2022/01/21 05:04:19;;;;;;;10.10;4.15;;;;;;;-3.84;100.00;100150.47;6303897;28;20042;-68
2022/01/21 05:07:24;;;;;;;13.18;4.40;;;;;;;-3.87;100.00;100155.56;6321547;28;20052;-73
2022/01/21 05:10:27;;;;;;;8.45;3.47;;;;;;;-3.95;100.00;100157.28;6309023;28;20132;-73
2022/01/21 05:13:36;;;;;;;9.35;3.70;;;;;;;-3.99;100.00;100158.13;6308472;28;20419;-73
2022/01/21 05:16:39;;;;;;;8.63;3.17;;;;;;;-4.21;100.00;100153.00;6293217;28;20118;-73
2022/01/21 05:19:40;;;;;;;12.25;4.20;;;;;;;-4.42;100.00;100150.44;6292282;28;20044;-73
2022/01/21 05:22:41;;;;;;;8.50;3.65;;;;;;;-4.37;100.00;100154.69;6326709;28;20396;-74
2022/01/21 05:25:42;;;;;;;5.97;3.42;;;;;;;-4.34;100.00;100148.78;6326370;28;20396;-72
2022/01/21 05:28:43;;;;;;;14.13;3.25;;;;;;;-4.33;100.00;100156.38;6308509;28;20135;-73
2022/01/21 05:31:43;;;;;;;8.32;3.42;;;;;;;-4.21;100.00;100165.75;6326316;28;20040;-75
2022/01/21 05:34:44;;;;;;;15.35;5.75;;;;;;;-4.31;100.00;100159.78;6291052;28;20527;-73
2022/01/21 05:37:45;;;;;;;11.25;5.25;;;;;;;-4.46;100.00;100165.72;6307437;28;20047;-74
2022/01/21 05:40:47;;;;;;;13.85;5.32;;;;;;;-4.46;100.00;100160.63;6307824;28;20052;-74
2022/01/21 05:43:48;;;;;;;15.80;6.03;;;;;;;-4.43;100.00;100152.13;6308239;28;20127;-74
2022/01/21 05:49:53;;;;;;;26.48;10.00;;;;;;;-4.38;100.00;100165.75;6308444;28;20054;-74
2022/01/21 05:52:55;;;;;;;26.80;8.95;;;;;;;-4.44;100.00;100178.47;6290852;28;20062;-74
2022/01/21 05:56:01;;;;;;;25.75;13.85;;;;;;;-4.46;100.00;100183.53;6308002;28;20044;-74
2022/01/21 05:59:02;;;;;;;23.15;10.35;;;;;;;-4.50;100.00;100189.47;6291748;28;20131;-69
2022/01/21 06:02:06;;;;;;;17.30;7.95;;;;;;;-4.51;100.00;100189.47;6274667;28;20044;-68
2022/01/21 06:05:08;;;;;;;12.05;6.45;;;;;;;-4.57;100.00;100195.41;6307858;28;20044;-74
2022/01/21 06:08:10;;;;;;;16.75;6.40;;;;;;;-4.59;100.00;100202.19;6304973;28;20064;-74
2022/01/21 06:11:11;;;;;;;12.85;5.40;;;;;;;-4.57;100.00;100200.50;6272221;28;20056;-74
2022/01/21 06:14:12;;;;;;;14.23;5.60;;;;;;;-4.54;100.00;100209.84;6293368;28;20040;-74
2022/01/21 06:17:13;;;;;;;12.80;5.20;;;;;;;-4.51;100.00;100210.72;6290831;28;20048;-74
2022/01/21 06:20:14;;;;;;;17.33;6.38;;;;;;;-4.56;100.00;100216.63;6291962;28;20049;-75
2022/01/21 06:23:15;;;;;;;18.73;7.28;;;;;;;-4.58;100.00;100211.53;6282381;28;20044;-74
2022/01/21 06:26:16;;;;;;;17.60;6.28;;;;;;;-4.60;100.00;100215.75;6282220;28;20436;-74
2022/01/21 06:29:17;;;;;;;11.27;4.57;;;;;;;-4.57;100.00;100225.09;6303648;28;20056;-74
2022/01/21 06:32:18;;;;;;;14.90;5.47;;;;;;;-4.63;100.00;100222.53;6290631;28;20059;-74
2022/01/21 06:35:18;;;;;;;13.15;6.18;;;;;;;-4.60;100.00;100231.03;6305596;28;20043;-68
2022/01/21 06:38:21;;;;;;;13.30;7.07;;;;;;;-4.62;100.00;100232.72;6305773;28;20476;-68
2022/01/21 06:41:22;;;;;;;16.88;6.40;;;;;;;-4.61;100.00;100231.03;6271897;28;20053;-74
2022/01/21 06:44:23;;;;;;;11.48;6.30;;;;;;;-4.51;100.00;100233.63;6262131;28;20106;-74
2022/01/21 06:47:24;;;;;;;42.72;15.48;;;;;;;-4.49;100.00;100234.50;6272119;28;20045;-74
2022/01/21 06:50:26;;;;;;;43.70;17.00;;;;;;;-4.37;100.00;100243.00;6279197;28;20049;-74
2022/01/21 06:53:26;;;;;;;47.85;17.13;;;;;;;-4.33;100.00;100249.81;6298304;28;20497;-74
2022/01/21 06:56:27;;;;;;;29.50;13.63;;;;;;;-4.40;100.00;100251.50;6280624;28;20669;-74
2022/01/21 06:59:28;;;;;;;28.35;11.02;;;;;;;-4.31;100.00;100258.31;6298687;28;20048;-74
2022/01/21 07:02:29;;;;;;;30.08;11.18;;;;;;;-4.19;100.00;100262.59;6280507;28;20082;-74
2022/01/21 07:05:30;;;;;;;24.20;10.05;;;;;;;-4.18;100.00;100269.38;6298135;28;20416;-74
2022/01/21 07:08:34;;;;;;;16.45;8.10;;;;;;;-4.11;100.00;100266.84;6280247;28;20040;-74
2022/01/21 07:11:34;;;;;;;24.75;9.43;;;;;;;-3.93;100.00;100275.38;6247987;28;20428;-74
2022/01/21 07:14:35;;;;;;;44.95;12.00;;;;;;;-3.78;100.00;100272.00;6263376;28;20051;-74
2022/01/21 07:17:36;;;;;;;33.63;14.65;;;;;;;-3.67;100.00;100276.25;6298180;28;20041;-75
2022/01/21 07:20:37;;;;;;;21.92;9.88;;;;;;;-3.65;100.00;100269.44;6297619;28;20447;-75
2022/01/21 07:23:38;;;;;;;26.40;11.77;;;;;;;-3.59;100.00;100283.06;6263359;28;20040;-74
2022/01/21 07:26:39;;;;;;;29.70;11.68;;;;;;;-3.71;100.00;100282.19;6279718;28;20397;-74
2022/01/21 07:29:40;;;;;;;28.80;10.50;;;;;;;-3.88;100.00;100277.09;6283596;28;20041;-74
2022/01/21 07:32:42;;;;;;;25.48;10.63;;;;;;;-3.83;100.00;100287.28;6254531;28;20497;-74
2022/01/21 07:35:43;;;;;;;;;;;;;;;-3.73;100.00;100291.56;6280337;28;20042;-74
2022/01/21 07:38:45;;;;;;;14.63;7.50;;;;;;;-3.60;100.00;100296.66;6283635;28;19979;-74
2022/01/21 07:41:47;;;;;;;21.88;10.25;;;;;;;-3.59;100.00;100288.19;6295191;28;20059;-74
2022/01/21 07:44:47;;;;;;;16.15;9.00;;;;;;;-3.46;100.00;100289.88;6305195;28;20074;-69
2022/01/21 07:47:48;;;;;;;22.40;11.05;;;;;;;-3.33;100.00;100296.69;6297168;28;20058;-69
2022/01/21 07:50:49;;;;;;;19.27;8.35;;;;;;;-3.28;100.00;100296.66;6279511;28;20113;-69
2022/01/21 07:53:50;;;;;;;16.17;6.30;;;;;;;-2.89;100.00;100305.97;6279336;28;20043;-69
2022/01/21 07:56:51;;;;;;;12.23;5.85;;;;;;;-2.92;100.00;100302.59;6279261;28;20480;-74
2022/01/21 07:59:52;;;;;;;8.93;4.63;;;;;;;-2.87;100.00;100300.88;6279193;28;20694;-68
2022/01/21 08:02:52;;;;;;;10.07;4.20;;;;;;;-2.31;99.46;100309.19;6279311;28;20123;-74
2022/01/21 08:05:53;;;;;;;8.93;3.20;;;;;;;-2.28;96.89;100306.66;6296922;28;20476;-69
2022/01/21 08:08:54;;;;;;;8.25;3.65;;;;;;;-2.25;97.23;100311.72;6278994;28;20135;-73
2022/01/21 08:11:55;;;;;;;8.43;2.90;;;;;;;-2.53;99.62;100313.53;6279080;28;20127;-74
2022/01/21 08:14:55;;;;;;;11.20;3.17;;;;;;;-2.47;99.99;100316.94;6262394;28;20066;-69
2022/01/21 08:17:56;;;;;;;8.68;3.65;;;;;;;-2.15;97.43;100312.56;6282020;28;20078;-74
2022/01/21 08:20:57;;;;;;;12.55;3.83;;;;;;;-1.90;95.32;100311.53;6303550;28;20136;-74
2022/01/21 08:23:58;;;;;;;11.93;4.50;;;;;;;-1.91;94.77;100317.53;6321686;28;20040;-74
2022/01/21 08:26:59;;;;;;;9.68;4.38;;;;;;;-1.57;94.73;100317.31;6286746;28;20066;-70
2022/01/21 08:30:00;;;;;;;8.55;3.63;;;;;;;-1.64;92.80;100328.47;6303442;28;20400;-69
2022/01/21 08:33:01;;;;;;;9.38;3.75;;;;;;;-1.76;93.44;100323.41;6321312;28;20086;-69
2022/01/21 08:36:03;;;;;;;8.63;4.63;;;;;;;-1.81;93.63;100313.22;6321329;28;20050;-74
2022/01/21 08:39:04;;;;;;;7.15;4.03;;;;;;;-1.72;90.93;100325.09;6286481;28;20044;-74
2022/01/21 08:42:06;;;;;;;10.63;3.47;;;;;;;-1.49;90.55;100324.94;6303019;28;20048;-70
2022/01/21 08:45:07;;;;;;;5.45;3.05;;;;;;;-1.34;88.30;100336.75;6302970;28;20381;-69
2022/01/21 08:48:10;;;;;;;4.72;3.05;;;;;;;-1.24;89.30;100335.81;6321064;28;20047;-74
2022/01/21 08:51:13;;;;;;;;;;;;;;;-1.09;87.81;100345.97;6303793;28;20544;-74
2022/01/21 08:54:16;;;;;;;6.53;2.97;;;;;;;-0.95;86.44;100343.25;6321108;28;19924;-74
2022/01/21 08:57:18;;;;;;;8.50;3.65;;;;;;;-1.09;85.69;100342.53;6320976;28;20051;-74
2022/01/21 09:00:21;;;;;;;7.55;2.83;;;;;;;-0.99;85.54;100343.31;6302924;28;20066;-74
2022/01/21 09:03:22;;;;;;;8.93;3.28;;;;;;;-0.83;83.08;100340.56;6321303;28;20134;-74
2022/01/21 09:06:28;;;;;;;8.25;3.95;;;;;;;-0.80;85.26;100357.66;6289896;28;20494;-69
2022/01/21 09:09:29;;;;;;;4.72;2.40;;;;;;;-0.76;81.46;100366.13;6278790;28;20139;-69
2022/01/21 09:12:30;;;;;;;10.45;3.22;;;;;;;-0.58;80.85;100373.66;6261420;28;20479;-70
2022/01/21 09:15:33;;;;;;;13.95;3.42;;;;;;;-0.55;81.69;100375.34;6277973;28;20055;-74
2022/01/21 09:18:46;;;;;;;10.15;3.03;;;;;;;-0.67;81.07;100374.59;6278162;28;20045;-69
2022/01/21 09:21:51;;;;;;;15.35;4.30;;;;;;;-0.47;79.90;100368.44;6277923;28;20067;-70
2022/01/21 09:24:51;;;;;;;6.22;2.92;;;;;;;-0.54;80.53;100361.66;6296182;28;20044;-70
2022/01/21 09:27:52;;;;;;;12.43;3.67;;;;;;;-0.22;78.62;100362.16;6295485;28;20090;-70
2022/01/21 09:30:53;;;;;;;5.25;3.10;;;;;;;-0.18;78.90;100372.38;6295561;28;20465;-69
2022/01/21 09:33:54;;;;;;;14.80;3.80;;;;;;;-0.50;79.66;100365.88;6277485;28;20105;-69
2022/01/21 09:36:57;;;;;;;18.98;4.25;;;;;;;-0.26;79.52;100364.78;6261142;28;20053;-74
2022/01/21 09:39:58;;;;;;;12.13;5.13;;;;;;;-0.30;78.61;100358.81;6295040;28;20508;-69
2022/01/21 09:42:59;;;;;;;11.00;4.93;;;;;;;-0.12;79.23;100356.94;6260910;28;20048;-74
2022/01/21 09:46:05;;;;;;;12.70;4.57;;;;;;;0.19;76.92;100360.78;6256544;28;20053;-69
2022/01/21 09:49:19;;;;;;;9.35;4.50;;;;;;;0.31;76.18;100361.47;6288589;28;20049;-69
2022/01/21 09:52:21;;;;;;;7.47;3.63;;;;;;;0.29;75.86;100356.38;6296765;28;20041;-70
2022/01/21 09:55:22;;;;;;;11.45;4.68;;;;;;;0.17;76.44;100359.94;6287337;28;20036;-74
2022/01/21 09:58:28;;;;;;;12.32;4.57;;;;;;;0.68;75.75;100360.94;6303876;28;20044;-75
2022/01/21 10:01:30;;;;;;;10.68;4.10;;;;;;;0.22;74.26;100357.31;6314434;28;20064;-75
2022/01/21 10:04:37;;;;;;;7.90;4.35;;;;;;;0.46;74.51;100376.66;6299635;28;20408;-74
2022/01/21 10:07:40;;;;;;;12.32;4.75;;;;;;;0.50;74.51;100375.75;6315325;28;20047;-74
2022/01/21 10:10:44;;;;;;;10.18;4.60;;;;;;;0.02;76.69;100367.84;6324567;28;20074;-75
2022/01/21 10:13:48;;;;;;;9.32;4.68;;;;;;;-0.35;79.40;100372.56;6306348;28;20535;-74
2022/01/21 10:16:49;;;;;;;7.40;3.45;;;;;;;-0.49;77.66;100368.44;6311774;28;20094;-74
2022/01/21 10:19:51;;;;;;;9.52;4.10;;;;;;;-0.53;78.73;100364.22;6312928;28;20036;-70
2022/01/21 10:23:00;;;;;;;;;;;;;;;-0.06;76.77;100375.66;6294437;28;20036;-70
2022/01/21 10:26:13;;;;;;;4.95;2.70;;;;;;;0.31;75.23;100375.16;6313977;28;19971;-70
2022/01/21 10:29:14;;;;;;;6.35;2.88;;;;;;;0.43;74.33;100369.00;6288720;28;20048;-70
2022/01/21 10:32:14;;;;;;;12.18;4.05;;;;;;;0.39;71.65;100365.66;6306345;28;20040;-69
2022/01/21 10:35:35;;;;;;;10.05;3.40;;;;;;;0.81;72.47;100365.00;6302618;28;20503;-75
2022/01/21 10:38:45;;;;;;;8.70;3.80;;;;;;;1.07;70.03;100368.88;6264604;28;20041;-75
2022/01/21 10:41:47;;;;;;;6.57;2.97;;;;;;;0.91;68.91;100369.13;6298633;28;20468;-75
2022/01/21 10:44:49;;;;;;;7.90;4.05;;;;;;;0.81;68.68;100383.00;6299465;28;20119;-74
2022/01/21 10:47:50;;;;;;;6.90;3.67;;;;;;;1.08;68.13;100373.16;6298939;28;20064;-75
2022/01/21 10:51:23;;;;;;;11.27;2.85;;;;;;;0.69;66.35;100373.75;6299626;28;20044;-74
2022/01/21 10:54:26;;;;;;;7.82;3.50;;;;;;;0.73;65.18;100357.41;6280546;28;20048;-75
2022/01/21 10:57:30;;;;;;;8.85;3.45;;;;;;;0.96;64.74;100369.06;6280686;28;20064;-75
2022/01/21 11:00:31;;;;;;;15.55;3.72;;;;;;;1.07;61.63;100371.44;6298316;28;20060;-75
2022/01/21 11:03:33;;;;;;;10.63;4.10;;;;;;;1.53;61.43;100386.06;6298429;28;20047;-75
2022/01/21 11:06:47;;;;;;;11.13;3.90;;;;;;;1.59;63.41;100393.66;6279675;28;20047;-75
2022/01/21 11:09:48;;;;;;;10.45;4.25;;;;;;;1.55;62.42;100387.72;6298130;28;20094;-75
2022/01/21 11:12:49;;;;;;;7.60;3.13;;;;;;;1.74;60.26;100379.66;6280375;28;20104;-75
2022/01/21 11:16:08;;;;;;;10.13;4.05;;;;;;;1.70;59.36;100378.03;6263734;28;20473;-75
2022/01/21 11:19:13;;;;;;;7.90;3.22;;;;;;;1.90;58.68;100373.34;6280185;28;20044;-75
2022/01/21 11:22:14;;;;;;;7.75;3.22;;;;;;;1.97;58.36;100374.88;6264148;28;20040;-75
2022/01/21 11:25:15;;;;;;;6.03;2.83;;;;;;;1.49;58.05;100387.84;6280224;28;20516;-75
2022/01/21 11:28:21;;;;;;;7.97;3.50;;;;;;;1.64;58.09;100389.28;6297702;28;20040;-75
2022/01/21 11:31:26;;;;;;;10.43;3.65;;;;;;;1.46;56.05;100387.03;6297652;28;20048;-74
2022/01/21 11:34:27;;;;;;;7.65;3.65;;;;;;;1.67;54.85;100381.50;6263764;28;20047;-75
2022/01/21 11:37:28;;;;;;;4.10;1.67;;;;;;;1.57;52.30;100388.53;6263311;28;20076;-75
2022/01/21 11:40:29;;;;;;;5.15;2.30;;;;;;;1.43;52.67;100381.97;6297052;28;20412;-75
2022/01/21 11:43:31;;;;;;;6.47;2.63;;;;;;;1.56;53.40;100388.56;6279799;28;20036;-75
2022/01/21 11:49:34;;;;;;;6.95;2.60;;;;;;;2.04;56.26;100369.63;6297183;28;20048;-71
2022/01/21 11:52:44;;;;;;;6.80;2.85;;;;;;;1.64;56.74;100378.13;6246624;28;20421;-75
2022/01/21 11:55:46;;;;;;;7.53;3.10;;;;;;;1.63;57.29;100366.13;6297110;28;20146;-75
2022/01/21 11:59:08;;;;;;;8.10;2.70;;;;;;;1.78;57.84;100353.84;6296991;28;20075;-75
2022/01/21 12:02:14;;;;;;;6.80;3.35;;;;;;;1.66;57.71;100355.81;6296520;28;20057;-69
2022/01/21 12:05:25;;;;;;;8.63;3.80;;;;;;;1.64;59.65;100357.56;6279111;28;20098;-70
2022/01/21 12:08:47;;;;;;;9.77;2.55;;;;;;;1.53;59.29;100362.91;6279244;28;20040;-70
2022/01/21 12:11:56;;;;;;;6.93;3.30;;;;;;;1.75;59.86;100364.19;6296486;28;20086;-70
2022/01/21 12:15:03;;;;;;;5.78;2.80;;;;;;;2.06;59.52;100361.00;6296957;28;20036;-70
2022/01/21 12:18:09;;;;;;;6.22;2.47;;;;;;;2.12;59.06;100353.16;6296560;28;20044;-70
2022/01/21 12:21:25;;;;;;;13.15;6.20;;;;;;;2.28;58.31;100360.53;6296507;28;20037;-70
2022/01/21 12:25:08;;;;;;;6.30;3.22;;;;;;;2.13;59.32;100354.81;6296444;28;20044;-70
2022/01/21 12:28:14;;;;;;;;;;;;;;;2.06;56.51;100362.72;6179678;28;20120;-70
2022/01/21 12:31:16;;;;;;;7.30;1.95;;;;;;;1.73;54.40;100367.66;6216474;28;19926;-70
2022/01/21 12:34:17;;;;;;;10.77;5.50;;;;;;;1.33;55.49;100368.41;6296457;28;20045;-75
2022/01/21 12:37:24;;;;;;;5.32;2.28;;;;;;;1.48;55.03;100362.13;6278405;28;20052;-75
2022/01/21 12:40:37;;;;;;;5.68;2.33;;;;;;;1.80;55.44;100348.66;6297275;28;20121;-70
2022/01/21 12:43:56;;;;;;;5.90;2.20;;;;;;;1.96;52.94;100351.78;6300935;28;20067;-75
2022/01/21 12:47:27;;;;;;;5.20;2.40;;;;;;;1.81;54.69;100351.22;6306598;28;20545;-75
2022/01/21 12:50:46;;;;;;;5.47;2.35;;;;;;;2.09;55.00;100348.06;6296204;28;20081;-75
2022/01/21 12:57:27;;;;;;;5.07;2.08;;;;;;;2.40;53.79;100337.06;6295985;28;20056;-76
2022/01/21 13:00:28;;;;;;;6.10;2.05;;;;;;;2.38;53.43;100333.69;6277749;28;20044;-75
2022/01/21 13:03:43;;;;;;;4.07;1.92;;;;;;;2.35;53.23;100326.03;6278065;28;20045;-75
2022/01/21 13:06:44;;;;;;;4.30;2.25;;;;;;;2.26;52.46;100324.50;6295722;28;20072;-76
2022/01/21 13:10:09;;;;;;;6.47;2.28;;;;;;;2.27;52.63;100326.22;6295698;28;20526;-70
2022/01/21 13:16:23;;;;;;;4.70;1.90;;;;;;;2.29;51.63;100319.31;6277964;28;20094;-70
2022/01/21 13:19:24;;;;;;;7.40;2.60;;;;;;;2.28;50.98;100317.59;6295527;28;20495;-70
2022/01/21 13:22:32;;;;;;;4.05;2.30;;;;;;;2.32;51.23;100331.25;6277718;28;20049;-70
2022/01/21 13:25:33;;;;;;;6.20;2.75;;;;;;;2.42;49.81;100330.16;6295554;28;20404;-70
2022/01/21 13:28:34;;;;;;;7.43;2.90;;;;;;;2.42;50.03;100331.00;6295499;28;20052;-70
2022/01/21 13:31:52;;;;;;;9.10;2.75;;;;;;;2.32;50.29;100333.81;6265848;28;20277;-71
2022/01/21 13:35:12;;;;;;;3.65;1.95;;;;;;;2.22;50.52;100340.91;6300382;28;20068;-76
2022/01/21 13:38:18;;;;;;;7.00;2.75;;;;;;;2.13;49.64;100339.38;6300440;28;20499;-76
2022/01/21 13:41:21;;;;;;;7.47;2.83;;;;;;;2.17;49.33;100337.59;6272133;28;20511;-75
2022/01/21 13:44:31;;;;;;;10.45;2.78;;;;;;;2.15;48.38;100340.19;6257869;28;20045;-76
2022/01/21 13:47:32;;;;;;;10.63;2.92;;;;;;;2.08;49.78;100340.34;6257641;28;20075;-75
2022/01/21 13:50:33;;;;;;;6.07;2.13;;;;;;;2.04;48.64;100336.16;6275327;28;20045;-75
2022/01/21 13:53:34;;;;;;;6.05;2.42;;;;;;;1.74;50.28;100335.91;6275251;28;20056;-70
2022/01/21 13:56:35;;;;;;;5.03;1.77;;;;;;;1.50;50.64;100335.50;6257209;28;20083;-75
2022/01/21 13:59:41;;;;;;;4.63;1.98;;;;;;;1.32;51.28;100331.59;6257244;28;20048;-75
2022/01/21 14:02:42;;;;;;;5.78;2.42;;;;;;;1.65;53.82;100325.81;6256994;28;20041;-70
2022/01/21 14:05:48;;;;;;;5.00;2.10;;;;;;;1.45;54.68;100309.06;6257103;28;20324;-70
2022/01/21 14:09:01;;;;;;;7.20;3.17;;;;;;;1.39;55.70;100309.16;6257044;28;20048;-70
2022/01/21 14:12:10;;;;;;;5.18;3.08;;;;;;;1.29;56.68;100305.91;6258226;28;20037;-70
2022/01/21 14:15:12;;;;;;;9.48;3.45;;;;;;;1.26;55.86;100302.56;6256934;28;20424;-70
2022/01/21 14:18:14;;;;;;;7.85;3.13;;;;;;;1.11;54.91;100313.97;6240773;28;20390;-70
2022/01/21 14:21:18;;;;;;;7.50;3.80;;;;;;;1.02;52.82;100319.28;6257348;28;20044;-70
2022/01/21 14:24:22;;;;;;;11.52;5.35;;;;;;;1.11;53.32;100322.53;6280832;28;20052;-70
2022/01/21 14:27:30;;;;;;;14.07;5.93;;;;;;;1.00;53.74;100322.72;6289141;28;20040;-71
2022/01/21 14:30:39;;;;;;;14.38;6.32;;;;;;;1.02;54.18;100320.13;6298729;28;20053;-70
2022/01/21 14:33:41;;;;;;;10.73;5.32;;;;;;;0.98;55.26;100326.19;6281083;28;20041;-70
2022/01/21 14:36:42;;;;;;;7.93;4.40;;;;;;;0.92;56.27;100328.88;6281465;28;20041;-75
2022/01/21 14:39:46;;;;;;;9.70;2.97;;;;;;;0.81;57.28;100323.91;6258090;28;20048;-76
2022/01/21 14:42:47;;;;;;;5.65;2.30;;;;;;;0.74;57.08;100317.16;6296902;28;20073;-74
2022/01/21 14:46:03;;;;;;;4.13;1.70;;;;;;;0.75;57.48;100322.28;6282465;28;20037;-74
2022/01/21 14:49:07;;;;;;;3.83;1.85;;;;;;;0.56;59.00;100319.16;6298920;28;20055;-75
2022/01/21 14:55:38;;;;;;;5.65;1.58;;;;;;;0.39;62.26;100321.13;6323896;28;20040;-75
2022/01/21 14:58:38;;;;;;;3.25;1.67;;;;;;;0.33;63.83;100319.53;6289291;28;20040;-75
2022/01/21 15:01:55;;;;;;;3.92;1.73;;;;;;;0.30;64.79;100317.00;6288990;28;20500;-75
2022/01/21 15:04:57;;;;;;;7.95;3.78;;;;;;;0.20;65.17;100307.72;6310326;28;20040;-76
2022/01/21 15:07:58;;;;;;;11.23;5.32;;;;;;;0.17;65.25;100300.09;6280973;28;20119;-75
2022/01/21 15:14:27;;;;;;;3.78;2.55;;;;;;;-0.02;64.14;100292.66;6323346;28;20090;-76
2022/01/21 15:17:28;;;;;;;4.95;1.95;;;;;;;-0.01;62.84;100298.63;6323151;28;20126;-73